sensor_id;sensor_type;location;lat;lon;timestamp;P1;durP1;ratioP1;P2;durP2;ratioP2
75984;SDS011;64670;44.726;37.764;2022-10-26T00:00:04;2.17;;;1.98;;
75984;SDS011;64670;44.726;37.764;2022-10-26T00:01:14;3.72;;;1.90;;
75984;SDS011;64670;44.726;37.764;2022-10-26T00:02:17;2.38;;;1.95;;
75984;SDS011;64670;44.726;37.764;2022-10-26T00:03:21;2.10;;;1.90;;
75984;SDS011;64670;44.726;37.764;2022-10-26T00:04:24;2.00;;;1.80;;
75984;SDS011;64670;44.726;37.764;2022-10-26T00:05:27;2.67;;;1.65;;
75984;SDS011;64670;44.726;37.764;2022-10-26T00:06:34;2.67;;;1.90;;
75984;SDS011;64670;44.726;37.764;2022-10-26T00:07:37;2.58;;;1.45;;
75984;SDS011;64670;44.726;37.764;2022-10-26T00:08:42;2.60;;;1.73;;
75984;SDS011;64670;44.726;37.764;2022-10-26T00:09:45;2.28;;;1.55;;
75984;SDS011;64670;44.726;37.764;2022-10-26T00:10:49;2.15;;;1.83;;
75984;SDS011;64670;44.726;37.764;2022-10-26T00:11:52;2.30;;;2.05;;
75984;SDS011;64670;44.726;37.764;2022-10-26T00:12:55;3.35;;;1.75;;
75984;SDS011;64670;44.726;37.764;2022-10-26T00:14:00;2.38;;;1.75;;
75984;SDS011;64670;44.726;37.764;2022-10-26T00:15:04;2.00;;;1.80;;
75984;SDS011;64670;44.726;37.764;2022-10-26T00:16:08;2.40;;;1.70;;
75984;SDS011;64670;44.726;37.764;2022-10-26T00:17:13;2.58;;;1.52;;
75984;SDS011;64670;44.726;37.764;2022-10-26T00:18:16;2.60;;;1.60;;
75984;SDS011;64670;44.726;37.764;2022-10-26T00:19:19;2.00;;;1.70;;
75984;SDS011;64670;44.726;37.764;2022-10-26T00:20:23;2.67;;;1.65;;
75984;SDS011;64670;44.726;37.764;2022-10-26T00:21:26;2.53;;;1.65;;
75984;SDS011;64670;44.726;37.764;2022-10-26T00:22:29;2.58;;;1.90;;
75984;SDS011;64670;44.726;37.764;2022-10-26T00:23:33;2.10;;;1.88;;
75984;SDS011;64670;44.726;37.764;2022-10-26T00:24:37;2.20;;;1.98;;
75984;SDS011;64670;44.726;37.764;2022-10-26T00:25:40;1.80;;;1.63;;
75984;SDS011;64670;44.726;37.764;2022-10-26T00:26:43;2.25;;;1.42;;
75984;SDS011;64670;44.726;37.764;2022-10-26T00:27:47;2.75;;;1.92;;
75984;SDS011;64670;44.726;37.764;2022-10-26T00:28:51;3.75;;;2.05;;
75984;SDS011;64670;44.726;37.764;2022-10-26T00:29:57;2.00;;;1.50;;
75984;SDS011;64670;44.726;37.764;2022-10-26T00:31:00;2.92;;;2.10;;
75984;SDS011;64670;44.726;37.764;2022-10-26T00:32:04;1.70;;;1.60;;
75984;SDS011;64670;44.726;37.764;2022-10-26T00:33:09;1.90;;;1.40;;
75984;SDS011;64670;44.726;37.764;2022-10-26T00:34:14;1.60;;;1.48;;
75984;SDS011;64670;44.726;37.764;2022-10-26T00:35:18;1.65;;;1.40;;
75984;SDS011;64670;44.726;37.764;2022-10-26T00:36:22;2.38;;;1.80;;
75984;SDS011;64670;44.726;37.764;2022-10-26T00:37:26;2.10;;;1.60;;
75984;SDS011;64670;44.726;37.764;2022-10-26T00:38:30;1.83;;;1.70;;
75984;SDS011;64670;44.726;37.764;2022-10-26T00:39:33;2.10;;;1.50;;
75984;SDS011;64670;44.726;37.764;2022-10-26T00:40:36;2.60;;;1.63;;
75984;SDS011;64670;44.726;37.764;2022-10-26T00:41:40;1.50;;;1.23;;
75984;SDS011;64670;44.726;37.764;2022-10-26T00:42:43;1.55;;;1.30;;
75984;SDS011;64670;44.726;37.764;2022-10-26T00:43:47;2.35;;;1.60;;
75984;SDS011;64670;44.726;37.764;2022-10-26T00:44:54;3.28;;;1.45;;
75984;SDS011;64670;44.726;37.764;2022-10-26T00:46:03;2.28;;;1.70;;
75984;SDS011;64670;44.726;37.764;2022-10-26T00:47:10;2.10;;;1.50;;
75984;SDS011;64670;44.726;37.764;2022-10-26T00:48:19;1.90;;;1.70;;
75984;SDS011;64670;44.726;37.764;2022-10-26T00:49:26;2.50;;;1.70;;
75984;SDS011;64670;44.726;37.764;2022-10-26T00:50:30;1.75;;;1.52;;
75984;SDS011;64670;44.726;37.764;2022-10-26T00:51:37;2.63;;;1.75;;
75984;SDS011;64670;44.726;37.764;2022-10-26T00:52:44;2.72;;;1.73;;
75984;SDS011;64670;44.726;37.764;2022-10-26T00:53:48;2.88;;;1.67;;
75984;SDS011;64670;44.726;37.764;2022-10-26T00:54:53;1.73;;;1.40;;
75984;SDS011;64670;44.726;37.764;2022-10-26T00:55:56;3.70;;;1.67;;
75984;SDS011;64670;44.726;37.764;2022-10-26T00:57:00;1.85;;;1.35;;
75984;SDS011;64670;44.726;37.764;2022-10-26T00:58:04;1.67;;;1.48;;
75984;SDS011;64670;44.726;37.764;2022-10-26T00:59:10;1.83;;;1.55;;
75984;SDS011;64670;44.726;37.764;2022-10-26T01:00:18;2.30;;;1.98;;
75984;SDS011;64670;44.726;37.764;2022-10-26T01:01:21;2.00;;;1.70;;
75984;SDS011;64670;44.726;37.764;2022-10-26T01:02:25;2.08;;;1.73;;
75984;SDS011;64670;44.726;37.764;2022-10-26T01:03:28;2.13;;;1.58;;
75984;SDS011;64670;44.726;37.764;2022-10-26T01:04:33;2.42;;;1.60;;
75984;SDS011;64670;44.726;37.764;2022-10-26T01:05:39;2.22;;;1.45;;
75984;SDS011;64670;44.726;37.764;2022-10-26T01:06:45;1.60;;;1.40;;
75984;SDS011;64670;44.726;37.764;2022-10-26T01:07:50;1.98;;;1.67;;
75984;SDS011;64670;44.726;37.764;2022-10-26T01:08:54;2.45;;;1.67;;
75984;SDS011;64670;44.726;37.764;2022-10-26T01:09:57;2.33;;;1.42;;
75984;SDS011;64670;44.726;37.764;2022-10-26T01:11:01;2.22;;;2.03;;
75984;SDS011;64670;44.726;37.764;2022-10-26T01:12:05;2.15;;;1.80;;
75984;SDS011;64670;44.726;37.764;2022-10-26T01:13:09;1.90;;;1.80;;
75984;SDS011;64670;44.726;37.764;2022-10-26T01:14:14;2.00;;;1.77;;
75984;SDS011;64670;44.726;37.764;2022-10-26T01:15:21;2.28;;;1.80;;
75984;SDS011;64670;44.726;37.764;2022-10-26T01:16:36;2.33;;;1.70;;
75984;SDS011;64670;44.726;37.764;2022-10-26T01:17:52;1.30;;;1.17;;
75984;SDS011;64670;44.726;37.764;2022-10-26T01:19:00;2.22;;;1.60;;
75984;SDS011;64670;44.726;37.764;2022-10-26T01:20:24;2.60;;;1.88;;
75984;SDS011;64670;44.726;37.764;2022-10-26T01:21:47;1.35;;;1.13;;
75984;SDS011;64670;44.726;37.764;2022-10-26T01:22:56;1.38;;;1.10;;
75984;SDS011;64670;44.726;37.764;2022-10-26T01:26:02;1.73;;;1.40;;
75984;SDS011;64670;44.726;37.764;2022-10-26T01:27:28;1.60;;;1.30;;
75984;SDS011;64670;44.726;37.764;2022-10-26T01:28:40;3.03;;;1.60;;
75984;SDS011;64670;44.726;37.764;2022-10-26T01:30:16;2.47;;;1.33;;
75984;SDS011;64670;44.726;37.764;2022-10-26T01:31:29;1.75;;;1.65;;
75984;SDS011;64670;44.726;37.764;2022-10-26T01:32:39;2.40;;;1.20;;
75984;SDS011;64670;44.726;37.764;2022-10-26T01:34:52;1.73;;;1.30;;
75984;SDS011;64670;44.726;37.764;2022-10-26T01:36:08;1.63;;;1.23;;
75984;SDS011;64670;44.726;37.764;2022-10-26T01:37:14;1.80;;;1.40;;
75984;SDS011;64670;44.726;37.764;2022-10-26T01:38:25;2.15;;;1.40;;
75984;SDS011;64670;44.726;37.764;2022-10-26T01:39:35;1.52;;;1.40;;
75984;SDS011;64670;44.726;37.764;2022-10-26T01:40:44;1.70;;;1.60;;
75984;SDS011;64670;44.726;37.764;2022-10-26T01:41:53;2.20;;;1.27;;
75984;SDS011;64670;44.726;37.764;2022-10-26T01:43:00;1.73;;;1.63;;
75984;SDS011;64670;44.726;37.764;2022-10-26T01:44:07;1.50;;;1.30;;
75984;SDS011;64670;44.726;37.764;2022-10-26T01:45:16;1.90;;;1.45;;
75984;SDS011;64670;44.726;37.764;2022-10-26T01:46:21;1.50;;;1.40;;
75984;SDS011;64670;44.726;37.764;2022-10-26T01:47:25;1.83;;;1.58;;
75984;SDS011;64670;44.726;37.764;2022-10-26T01:48:31;2.70;;;1.50;;
75984;SDS011;64670;44.726;37.764;2022-10-26T01:49:37;2.03;;;1.60;;
75984;SDS011;64670;44.726;37.764;2022-10-26T01:50:44;1.80;;;1.55;;
75984;SDS011;64670;44.726;37.764;2022-10-26T01:51:49;1.67;;;1.00;;
75984;SDS011;64670;44.726;37.764;2022-10-26T01:52:53;1.95;;;1.60;;
75984;SDS011;64670;44.726;37.764;2022-10-26T01:53:56;1.88;;;1.45;;
75984;SDS011;64670;44.726;37.764;2022-10-26T01:55:00;2.78;;;1.45;;
75984;SDS011;64670;44.726;37.764;2022-10-26T01:56:04;1.52;;;1.42;;
75984;SDS011;64670;44.726;37.764;2022-10-26T01:57:20;1.50;;;1.20;;
75984;SDS011;64670;44.726;37.764;2022-10-26T01:58:30;1.90;;;1.70;;
75984;SDS011;64670;44.726;37.764;2022-10-26T01:59:59;1.38;;;1.10;;
75984;SDS011;64670;44.726;37.764;2022-10-26T02:01:12;2.83;;;1.73;;
75984;SDS011;64670;44.726;37.764;2022-10-26T02:02:37;2.65;;;1.75;;
75984;SDS011;64670;44.726;37.764;2022-10-26T02:03:53;2.28;;;1.15;;
75984;SDS011;64670;44.726;37.764;2022-10-26T02:05:07;1.45;;;1.00;;
75984;SDS011;64670;44.726;37.764;2022-10-26T02:06:24;2.08;;;1.42;;
75984;SDS011;64670;44.726;37.764;2022-10-26T02:08:52;1.15;;;1.05;;
75984;SDS011;64670;44.726;37.764;2022-10-26T02:10:04;1.55;;;1.23;;
75984;SDS011;64670;44.726;37.764;2022-10-26T02:11:18;1.95;;;1.10;;
75984;SDS011;64670;44.726;37.764;2022-10-26T02:12:29;1.38;;;1.25;;
75984;SDS011;64670;44.726;37.764;2022-10-26T02:13:40;1.88;;;1.67;;
75984;SDS011;64670;44.726;37.764;2022-10-26T02:14:47;1.58;;;1.48;;
75984;SDS011;64670;44.726;37.764;2022-10-26T02:15:53;1.67;;;1.58;;
75984;SDS011;64670;44.726;37.764;2022-10-26T02:17:03;1.48;;;1.23;;
75984;SDS011;64670;44.726;37.764;2022-10-26T02:18:12;1.73;;;1.33;;
75984;SDS011;64670;44.726;37.764;2022-10-26T02:19:28;2.42;;;1.30;;
75984;SDS011;64670;44.726;37.764;2022-10-26T02:20:37;1.90;;;1.20;;
75984;SDS011;64670;44.726;37.764;2022-10-26T02:21:45;1.30;;;1.20;;
75984;SDS011;64670;44.726;37.764;2022-10-26T02:23:57;2.35;;;1.20;;
75984;SDS011;64670;44.726;37.764;2022-10-26T02:25:11;1.42;;;1.10;;
75984;SDS011;64670;44.726;37.764;2022-10-26T02:26:20;1.88;;;1.38;;
75984;SDS011;64670;44.726;37.764;2022-10-26T02:27:26;2.42;;;1.20;;
75984;SDS011;64670;44.726;37.764;2022-10-26T02:28:33;1.45;;;1.35;;
75984;SDS011;64670;44.726;37.764;2022-10-26T02:29:39;1.83;;;1.48;;
75984;SDS011;64670;44.726;37.764;2022-10-26T02:30:44;1.33;;;1.15;;
75984;SDS011;64670;44.726;37.764;2022-10-26T02:31:50;2.08;;;1.17;;
75984;SDS011;64670;44.726;37.764;2022-10-26T02:32:56;2.33;;;1.35;;
75984;SDS011;64670;44.726;37.764;2022-10-26T02:34:01;1.95;;;1.50;;
75984;SDS011;64670;44.726;37.764;2022-10-26T02:35:08;1.20;;;1.10;;
75984;SDS011;64670;44.726;37.764;2022-10-26T02:36:14;1.58;;;1.48;;
75984;SDS011;64670;44.726;37.764;2022-10-26T02:37:20;1.80;;;1.10;;
75984;SDS011;64670;44.726;37.764;2022-10-26T02:38:26;1.40;;;1.10;;
75984;SDS011;64670;44.726;37.764;2022-10-26T02:39:32;1.50;;;1.40;;
75984;SDS011;64670;44.726;37.764;2022-10-26T02:40:37;2.20;;;1.00;;
75984;SDS011;64670;44.726;37.764;2022-10-26T02:41:41;1.30;;;1.20;;
75984;SDS011;64670;44.726;37.764;2022-10-26T02:42:47;1.48;;;1.35;;
75984;SDS011;64670;44.726;37.764;2022-10-26T02:43:56;1.60;;;1.50;;
75984;SDS011;64670;44.726;37.764;2022-10-26T02:45:04;1.30;;;1.20;;
75984;SDS011;64670;44.726;37.764;2022-10-26T02:46:12;2.45;;;1.08;;
75984;SDS011;64670;44.726;37.764;2022-10-26T02:47:18;1.58;;;1.48;;
75984;SDS011;64670;44.726;37.764;2022-10-26T02:48:23;1.40;;;1.30;;
75984;SDS011;64670;44.726;37.764;2022-10-26T02:49:27;1.20;;;1.10;;
75984;SDS011;64670;44.726;37.764;2022-10-26T02:50:32;1.55;;;1.30;;
75984;SDS011;64670;44.726;37.764;2022-10-26T02:51:42;1.50;;;1.27;;
75984;SDS011;64670;44.726;37.764;2022-10-26T02:52:54;1.60;;;1.35;;
75984;SDS011;64670;44.726;37.764;2022-10-26T02:54:04;1.17;;;1.08;;
75984;SDS011;64670;44.726;37.764;2022-10-26T02:55:17;1.25;;;1.15;;
75984;SDS011;64670;44.726;37.764;2022-10-26T02:56:25;1.23;;;1.08;;
75984;SDS011;64670;44.726;37.764;2022-10-26T02:57:34;1.67;;;1.40;;
75984;SDS011;64670;44.726;37.764;2022-10-26T02:58:42;1.50;;;1.40;;
75984;SDS011;64670;44.726;37.764;2022-10-26T02:59:49;1.08;;;0.95;;
75984;SDS011;64670;44.726;37.764;2022-10-26T03:00:54;1.63;;;1.50;;
75984;SDS011;64670;44.726;37.764;2022-10-26T03:01:57;1.42;;;1.33;;
75984;SDS011;64670;44.726;37.764;2022-10-26T03:03:02;2.78;;;1.50;;
75984;SDS011;64670;44.726;37.764;2022-10-26T03:04:08;1.45;;;1.30;;
75984;SDS011;64670;44.726;37.764;2022-10-26T03:05:12;2.05;;;0.90;;
75984;SDS011;64670;44.726;37.764;2022-10-26T03:06:20;1.85;;;1.33;;
75984;SDS011;64670;44.726;37.764;2022-10-26T03:07:24;1.33;;;1.00;;
75984;SDS011;64670;44.726;37.764;2022-10-26T03:08:28;1.20;;;0.90;;
75984;SDS011;64670;44.726;37.764;2022-10-26T03:09:31;1.20;;;0.93;;
75984;SDS011;64670;44.726;37.764;2022-10-26T03:10:35;2.33;;;1.50;;
75984;SDS011;64670;44.726;37.764;2022-10-26T03:11:42;1.33;;;1.23;;
75984;SDS011;64670;44.726;37.764;2022-10-26T03:12:46;2.05;;;1.88;;
75984;SDS011;64670;44.726;37.764;2022-10-26T03:13:50;2.95;;;1.60;;
75984;SDS011;64670;44.726;37.764;2022-10-26T03:14:53;1.52;;;1.40;;
75984;SDS011;64670;44.726;37.764;2022-10-26T03:15:56;1.52;;;1.40;;
75984;SDS011;64670;44.726;37.764;2022-10-26T03:17:00;1.60;;;1.30;;
75984;SDS011;64670;44.726;37.764;2022-10-26T03:18:03;1.38;;;1.27;;
75984;SDS011;64670;44.726;37.764;2022-10-26T03:19:08;1.70;;;1.60;;
75984;SDS011;64670;44.726;37.764;2022-10-26T03:20:12;1.30;;;1.17;;
75984;SDS011;64670;44.726;37.764;2022-10-26T03:21:15;2.95;;;1.70;;
75984;SDS011;64670;44.726;37.764;2022-10-26T03:22:18;2.00;;;1.30;;
75984;SDS011;64670;44.726;37.764;2022-10-26T03:23:22;1.50;;;1.40;;
75984;SDS011;64670;44.726;37.764;2022-10-26T03:24:25;3.03;;;1.30;;
75984;SDS011;64670;44.726;37.764;2022-10-26T03:25:28;2.53;;;1.60;;
75984;SDS011;64670;44.726;37.764;2022-10-26T03:26:32;1.88;;;1.10;;
75984;SDS011;64670;44.726;37.764;2022-10-26T03:27:35;1.50;;;1.20;;
75984;SDS011;64670;44.726;37.764;2022-10-26T03:28:39;1.67;;;1.40;;
75984;SDS011;64670;44.726;37.764;2022-10-26T03:29:42;1.70;;;1.60;;
75984;SDS011;64670;44.726;37.764;2022-10-26T03:30:46;2.80;;;1.20;;
75984;SDS011;64670;44.726;37.764;2022-10-26T03:31:49;1.50;;;1.10;;
75984;SDS011;64670;44.726;37.764;2022-10-26T03:32:55;1.80;;;1.40;;
75984;SDS011;64670;44.726;37.764;2022-10-26T03:33:59;1.85;;;1.40;;
75984;SDS011;64670;44.726;37.764;2022-10-26T03:35:04;1.25;;;1.15;;
75984;SDS011;64670;44.726;37.764;2022-10-26T03:36:08;2.65;;;1.50;;
75984;SDS011;64670;44.726;37.764;2022-10-26T03:37:12;2.10;;;1.30;;
75984;SDS011;64670;44.726;37.764;2022-10-26T03:38:15;1.38;;;0.85;;
75984;SDS011;64670;44.726;37.764;2022-10-26T03:39:18;1.95;;;1.85;;
75984;SDS011;64670;44.726;37.764;2022-10-26T03:40:21;3.35;;;1.20;;
75984;SDS011;64670;44.726;37.764;2022-10-26T03:41:25;1.73;;;1.02;;
75984;SDS011;64670;44.726;37.764;2022-10-26T03:42:32;3.47;;;1.33;;
75984;SDS011;64670;44.726;37.764;2022-10-26T03:44:40;2.72;;;1.02;;
75984;SDS011;64670;44.726;37.764;2022-10-26T03:45:44;4.20;;;1.30;;
75984;SDS011;64670;44.726;37.764;2022-10-26T03:46:47;1.73;;;0.90;;
75984;SDS011;64670;44.726;37.764;2022-10-26T03:47:51;2.95;;;1.13;;
75984;SDS011;64670;44.726;37.764;2022-10-26T03:48:54;1.40;;;1.23;;
75984;SDS011;64670;44.726;37.764;2022-10-26T03:49:58;2.10;;;1.20;;
75984;SDS011;64670;44.726;37.764;2022-10-26T03:51:03;1.40;;;1.10;;
75984;SDS011;64670;44.726;37.764;2022-10-26T03:52:07;2.28;;;1.15;;
75984;SDS011;64670;44.726;37.764;2022-10-26T03:53:10;3.78;;;1.30;;
75984;SDS011;64670;44.726;37.764;2022-10-26T03:54:14;3.33;;;1.27;;
75984;SDS011;64670;44.726;37.764;2022-10-26T03:55:18;2.45;;;1.25;;
75984;SDS011;64670;44.726;37.764;2022-10-26T03:56:21;1.60;;;1.30;;
75984;SDS011;64670;44.726;37.764;2022-10-26T03:57:25;2.67;;;1.27;;
75984;SDS011;64670;44.726;37.764;2022-10-26T03:58:28;2.45;;;1.15;;
75984;SDS011;64670;44.726;37.764;2022-10-26T03:59:31;4.82;;;1.70;;
75984;SDS011;64670;44.726;37.764;2022-10-26T04:00:35;2.65;;;1.20;;
75984;SDS011;64670;44.726;37.764;2022-10-26T04:01:38;3.10;;;0.90;;
75984;SDS011;64670;44.726;37.764;2022-10-26T04:02:42;3.13;;;1.30;;
75984;SDS011;64670;44.726;37.764;2022-10-26T04:03:48;1.10;;;0.98;;
75984;SDS011;64670;44.726;37.764;2022-10-26T04:04:51;1.85;;;1.25;;
75984;SDS011;64670;44.726;37.764;2022-10-26T04:05:54;1.67;;;0.90;;
75984;SDS011;64670;44.726;37.764;2022-10-26T04:07:01;0.90;;;0.80;;
75984;SDS011;64670;44.726;37.764;2022-10-26T04:08:04;5.72;;;1.33;;
75984;SDS011;64670;44.726;37.764;2022-10-26T04:09:08;2.15;;;1.20;;
75984;SDS011;64670;44.726;37.764;2022-10-26T04:10:11;4.32;;;1.30;;
75984;SDS011;64670;44.726;37.764;2022-10-26T04:11:14;4.13;;;1.63;;
75984;SDS011;64670;44.726;37.764;2022-10-26T04:12:18;3.70;;;1.40;;
75984;SDS011;64670;44.726;37.764;2022-10-26T04:13:21;12.00;;;2.40;;
75984;SDS011;64670;44.726;37.764;2022-10-26T04:14:25;5.20;;;2.22;;
75984;SDS011;64670;44.726;37.764;2022-10-26T04:15:28;16.85;;;4.72;;
75984;SDS011;64670;44.726;37.764;2022-10-26T04:16:31;27.85;;;5.10;;
75984;SDS011;64670;44.726;37.764;2022-10-26T04:17:35;27.13;;;6.45;;
75984;SDS011;64670;44.726;37.764;2022-10-26T04:18:40;30.88;;;7.60;;
75984;SDS011;64670;44.726;37.764;2022-10-26T04:19:43;32.67;;;6.32;;
75984;SDS011;64670;44.726;37.764;2022-10-26T04:20:47;37.25;;;7.43;;
75984;SDS011;64670;44.726;37.764;2022-10-26T04:21:50;34.47;;;8.27;;
75984;SDS011;64670;44.726;37.764;2022-10-26T04:22:59;50.55;;;9.43;;
75984;SDS011;64670;44.726;37.764;2022-10-26T04:24:03;34.42;;;6.90;;
75984;SDS011;64670;44.726;37.764;2022-10-26T04:25:09;48.50;;;9.27;;
75984;SDS011;64670;44.726;37.764;2022-10-26T04:26:17;33.47;;;7.85;;
75984;SDS011;64670;44.726;37.764;2022-10-26T04:27:20;33.50;;;7.65;;
75984;SDS011;64670;44.726;37.764;2022-10-26T04:28:24;37.15;;;9.68;;
75984;SDS011;64670;44.726;37.764;2022-10-26T04:29:27;32.50;;;8.20;;
75984;SDS011;64670;44.726;37.764;2022-10-26T04:30:31;37.95;;;8.07;;
75984;SDS011;64670;44.726;37.764;2022-10-26T04:31:35;31.33;;;8.27;;
75984;SDS011;64670;44.726;37.764;2022-10-26T04:32:38;34.15;;;8.68;;
75984;SDS011;64670;44.726;37.764;2022-10-26T04:33:42;40.08;;;9.25;;
75984;SDS011;64670;44.726;37.764;2022-10-26T04:34:46;37.20;;;8.57;;
75984;SDS011;64670;44.726;37.764;2022-10-26T04:35:50;34.05;;;9.88;;
75984;SDS011;64670;44.726;37.764;2022-10-26T04:36:53;35.70;;;8.98;;
75984;SDS011;64670;44.726;37.764;2022-10-26T04:37:59;38.05;;;7.85;;
75984;SDS011;64670;44.726;37.764;2022-10-26T04:39:03;38.38;;;8.40;;
75984;SDS011;64670;44.726;37.764;2022-10-26T04:40:07;34.17;;;8.40;;
75984;SDS011;64670;44.726;37.764;2022-10-26T04:41:11;38.65;;;9.27;;
75984;SDS011;64670;44.726;37.764;2022-10-26T04:42:14;31.52;;;8.80;;
75984;SDS011;64670;44.726;37.764;2022-10-26T04:43:18;36.20;;;8.52;;
75984;SDS011;64670;44.726;37.764;2022-10-26T04:44:21;36.92;;;10.07;;
75984;SDS011;64670;44.726;37.764;2022-10-26T04:45:25;44.15;;;9.00;;
75984;SDS011;64670;44.726;37.764;2022-10-26T04:46:32;35.20;;;8.65;;
75984;SDS011;64670;44.726;37.764;2022-10-26T04:47:35;28.42;;;8.43;;
75984;SDS011;64670;44.726;37.764;2022-10-26T04:48:39;31.02;;;8.35;;
75984;SDS011;64670;44.726;37.764;2022-10-26T04:49:42;29.25;;;7.60;;
75984;SDS011;64670;44.726;37.764;2022-10-26T04:50:45;35.42;;;9.73;;
75984;SDS011;64670;44.726;37.764;2022-10-26T04:51:49;36.03;;;9.30;;
75984;SDS011;64670;44.726;37.764;2022-10-26T04:52:52;35.50;;;8.43;;
75984;SDS011;64670;44.726;37.764;2022-10-26T04:53:57;35.05;;;9.15;;
75984;SDS011;64670;44.726;37.764;2022-10-26T04:55:00;32.72;;;8.02;;
75984;SDS011;64670;44.726;37.764;2022-10-26T04:56:07;33.38;;;8.25;;
75984;SDS011;64670;44.726;37.764;2022-10-26T04:57:11;29.00;;;8.70;;
75984;SDS011;64670;44.726;37.764;2022-10-26T04:58:14;31.60;;;8.27;;
75984;SDS011;64670;44.726;37.764;2022-10-26T04:59:18;27.33;;;8.32;;
75984;SDS011;64670;44.726;37.764;2022-10-26T05:00:21;26.85;;;8.18;;
75984;SDS011;64670;44.726;37.764;2022-10-26T05:01:25;32.70;;;8.45;;
75984;SDS011;64670;44.726;37.764;2022-10-26T05:02:28;31.52;;;9.80;;
75984;SDS011;64670;44.726;37.764;2022-10-26T05:03:31;29.13;;;7.80;;
75984;SDS011;64670;44.726;37.764;2022-10-26T05:04:35;30.00;;;8.20;;
75984;SDS011;64670;44.726;37.764;2022-10-26T05:05:38;24.95;;;6.30;;
75984;SDS011;64670;44.726;37.764;2022-10-26T05:06:42;22.90;;;7.53;;
75984;SDS011;64670;44.726;37.764;2022-10-26T05:07:52;29.33;;;7.45;;
75984;SDS011;64670;44.726;37.764;2022-10-26T05:08:57;25.50;;;7.20;;
75984;SDS011;64670;44.726;37.764;2022-10-26T05:10:01;32.03;;;7.88;;
75984;SDS011;64670;44.726;37.764;2022-10-26T05:11:05;24.77;;;6.82;;
75984;SDS011;64670;44.726;37.764;2022-10-26T05:12:08;19.48;;;6.75;;
75984;SDS011;64670;44.726;37.764;2022-10-26T05:13:11;16.70;;;6.22;;
75984;SDS011;64670;44.726;37.764;2022-10-26T05:14:15;23.98;;;7.15;;
75984;SDS011;64670;44.726;37.764;2022-10-26T05:15:18;26.70;;;7.55;;
75984;SDS011;64670;44.726;37.764;2022-10-26T05:16:21;25.38;;;7.25;;
75984;SDS011;64670;44.726;37.764;2022-10-26T05:17:25;26.08;;;7.65;;
75984;SDS011;64670;44.726;37.764;2022-10-26T05:18:28;24.05;;;8.02;;
75984;SDS011;64670;44.726;37.764;2022-10-26T05:19:32;26.55;;;7.53;;
75984;SDS011;64670;44.726;37.764;2022-10-26T05:20:35;22.00;;;7.07;;
75984;SDS011;64670;44.726;37.764;2022-10-26T05:21:39;26.73;;;6.78;;
75984;SDS011;64670;44.726;37.764;2022-10-26T05:22:43;25.67;;;8.00;;
75984;SDS011;64670;44.726;37.764;2022-10-26T05:23:54;20.67;;;5.88;;
75984;SDS011;64670;44.726;37.764;2022-10-26T05:24:58;23.80;;;7.65;;
75984;SDS011;64670;44.726;37.764;2022-10-26T05:26:02;17.52;;;5.90;;
75984;SDS011;64670;44.726;37.764;2022-10-26T05:27:06;20.75;;;6.45;;
75984;SDS011;64670;44.726;37.764;2022-10-26T05:28:10;21.45;;;6.38;;
75984;SDS011;64670;44.726;37.764;2022-10-26T05:29:17;20.33;;;6.40;;
75984;SDS011;64670;44.726;37.764;2022-10-26T05:30:20;20.77;;;6.00;;
75984;SDS011;64670;44.726;37.764;2022-10-26T05:31:23;20.63;;;6.65;;
75984;SDS011;64670;44.726;37.764;2022-10-26T05:32:27;17.67;;;6.22;;
75984;SDS011;64670;44.726;37.764;2022-10-26T05:33:30;20.00;;;5.50;;
75984;SDS011;64670;44.726;37.764;2022-10-26T05:34:34;15.85;;;5.57;;
75984;SDS011;64670;44.726;37.764;2022-10-26T05:35:38;17.45;;;5.32;;
75984;SDS011;64670;44.726;37.764;2022-10-26T05:36:42;18.95;;;5.90;;
75984;SDS011;64670;44.726;37.764;2022-10-26T05:37:45;16.63;;;4.70;;
75984;SDS011;64670;44.726;37.764;2022-10-26T05:38:48;17.05;;;5.47;;
75984;SDS011;64670;44.726;37.764;2022-10-26T05:39:52;20.13;;;5.13;;
75984;SDS011;64670;44.726;37.764;2022-10-26T05:40:57;20.67;;;6.45;;
75984;SDS011;64670;44.726;37.764;2022-10-26T05:42:03;19.15;;;5.90;;
75984;SDS011;64670;44.726;37.764;2022-10-26T05:43:06;20.88;;;5.57;;
75984;SDS011;64670;44.726;37.764;2022-10-26T05:44:10;17.77;;;6.00;;
75984;SDS011;64670;44.726;37.764;2022-10-26T05:45:14;15.60;;;5.43;;
75984;SDS011;64670;44.726;37.764;2022-10-26T05:46:19;15.55;;;4.85;;
75984;SDS011;64670;44.726;37.764;2022-10-26T05:47:24;18.98;;;6.22;;
75984;SDS011;64670;44.726;37.764;2022-10-26T05:48:27;15.32;;;5.72;;
75984;SDS011;64670;44.726;37.764;2022-10-26T05:49:31;16.35;;;5.38;;
75984;SDS011;64670;44.726;37.764;2022-10-26T05:50:34;15.70;;;5.35;;
75984;SDS011;64670;44.726;37.764;2022-10-26T05:51:38;16.15;;;5.68;;
75984;SDS011;64670;44.726;37.764;2022-10-26T05:52:41;16.40;;;5.40;;
75984;SDS011;64670;44.726;37.764;2022-10-26T05:53:46;16.80;;;5.25;;
75984;SDS011;64670;44.726;37.764;2022-10-26T05:54:50;14.35;;;5.05;;
75984;SDS011;64670;44.726;37.764;2022-10-26T05:55:53;15.50;;;4.38;;
75984;SDS011;64670;44.726;37.764;2022-10-26T05:56:59;12.27;;;4.20;;
75984;SDS011;64670;44.726;37.764;2022-10-26T05:58:03;16.00;;;5.15;;
75984;SDS011;64670;44.726;37.764;2022-10-26T05:59:13;13.82;;;4.78;;
75984;SDS011;64670;44.726;37.764;2022-10-26T06:00:19;14.82;;;5.10;;
75984;SDS011;64670;44.726;37.764;2022-10-26T06:01:26;10.75;;;3.95;;
75984;SDS011;64670;44.726;37.764;2022-10-26T06:02:35;13.93;;;4.55;;
75984;SDS011;64670;44.726;37.764;2022-10-26T06:03:50;13.60;;;5.03;;
75984;SDS011;64670;44.726;37.764;2022-10-26T06:05:04;12.30;;;4.72;;
75984;SDS011;64670;44.726;37.764;2022-10-26T06:06:12;11.60;;;4.93;;
75984;SDS011;64670;44.726;37.764;2022-10-26T06:07:17;10.65;;;4.35;;
75984;SDS011;64670;44.726;37.764;2022-10-26T06:08:24;12.20;;;4.32;;
75984;SDS011;64670;44.726;37.764;2022-10-26T06:09:29;13.23;;;4.70;;
75984;SDS011;64670;44.726;37.764;2022-10-26T06:10:34;11.43;;;4.50;;
75984;SDS011;64670;44.726;37.764;2022-10-26T06:11:37;15.60;;;4.32;;
75984;SDS011;64670;44.726;37.764;2022-10-26T06:12:43;12.30;;;4.82;;
75984;SDS011;64670;44.726;37.764;2022-10-26T06:13:47;12.23;;;3.85;;
75984;SDS011;64670;44.726;37.764;2022-10-26T06:14:54;9.45;;;3.90;;
75984;SDS011;64670;44.726;37.764;2022-10-26T06:16:01;14.07;;;4.22;;
75984;SDS011;64670;44.726;37.764;2022-10-26T06:17:18;9.98;;;4.05;;
75984;SDS011;64670;44.726;37.764;2022-10-26T06:18:32;16.00;;;5.07;;
75984;SDS011;64670;44.726;37.764;2022-10-26T06:19:48;10.65;;;4.05;;
75984;SDS011;64670;44.726;37.764;2022-10-26T06:21:09;10.40;;;4.30;;
75984;SDS011;64670;44.726;37.764;2022-10-26T06:22:27;11.93;;;3.75;;
75984;SDS011;64670;44.726;37.764;2022-10-26T06:23:43;11.02;;;3.55;;
75984;SDS011;64670;44.726;37.764;2022-10-26T06:24:55;11.05;;;3.92;;
75984;SDS011;64670;44.726;37.764;2022-10-26T06:26:08;10.63;;;4.90;;
75984;SDS011;64670;44.726;37.764;2022-10-26T06:27:22;10.00;;;4.32;;
75984;SDS011;64670;44.726;37.764;2022-10-26T06:28:35;9.07;;;3.50;;
75984;SDS011;64670;44.726;37.764;2022-10-26T06:29:52;10.68;;;3.95;;
75984;SDS011;64670;44.726;37.764;2022-10-26T06:31:01;12.18;;;3.78;;
75984;SDS011;64670;44.726;37.764;2022-10-26T06:32:05;13.90;;;4.13;;
75984;SDS011;64670;44.726;37.764;2022-10-26T06:33:10;12.05;;;4.05;;
75984;SDS011;64670;44.726;37.764;2022-10-26T06:34:21;8.77;;;3.03;;
75984;SDS011;64670;44.726;37.764;2022-10-26T06:35:30;7.95;;;3.10;;
75984;SDS011;64670;44.726;37.764;2022-10-26T06:36:38;13.23;;;3.70;;